createdAt,value
2018-07-26T00:00:38.034Z,22.91
2018-07-26T00:01:38.069Z,22.83
2018-07-26T00:02:38.079Z,22.73
2018-07-26T00:03:38.106Z,22.60
2018-07-26T00:04:38.127Z,22.50
2018-07-26T00:05:38.144Z,22.26
2018-07-26T00:06:38.178Z,22.22
2018-07-26T00:07:38.192Z,22.29
2018-07-26T00:08:38.223Z,21.98
2018-07-26T00:09:38.236Z,21.98
2018-07-26T00:10:38.263Z,21.80
2018-07-26T00:11:38.285Z,21.76
2018-07-26T00:12:38.311Z,21.88
2018-07-26T00:13:38.334Z,21.96
2018-07-26T00:14:38.349Z,21.99
2018-07-26T00:15:38.371Z,21.85
2018-07-26T00:16:38.402Z,21.67
2018-07-26T00:17:38.422Z,21.88
2018-07-26T00:18:38.457Z,21.75
2018-07-26T00:19:38.463Z,21.76
2018-07-26T00:20:38.483Z,21.96
2018-07-26T00:21:38.559Z,21.88
2018-07-26T00:22:38.542Z,21.98
2018-07-26T00:23:38.573Z,22.15
2018-07-26T00:24:38.575Z,21.96
2018-07-26T00:25:38.602Z,22.18
2018-07-26T00:26:38.633Z,22.54
2018-07-26T00:27:38.700Z,22.45
2018-07-26T00:28:38.670Z,22.59
2018-07-26T00:29:38.694Z,22.66
2018-07-26T00:30:38.725Z,22.65
2018-07-26T00:31:38.732Z,22.57
2018-07-26T00:32:38.760Z,22.65
2018-07-26T00:33:38.775Z,22.78
2018-07-26T00:34:38.803Z,22.78
2018-07-26T00:35:38.819Z,22.50
2018-07-26T00:36:38.870Z,22.54
2018-07-26T00:37:38.867Z,22.35
2018-07-26T00:38:38.886Z,22.15
2018-07-26T00:39:38.911Z,22.04
2018-07-26T00:40:38.945Z,21.67
2018-07-26T00:41:38.951Z,21.76
2018-07-26T00:42:39.002Z,21.64
2018-07-26T00:43:39.002Z,21.52
2018-07-26T00:44:39.019Z,21.88
2018-07-26T00:45:39.045Z,21.99
2018-07-26T00:46:39.069Z,22.15
2018-07-26T00:47:39.136Z,21.96
2018-07-26T00:48:39.160Z,22.13
2018-07-26T00:49:39.130Z,21.96
2018-07-26T00:50:39.152Z,22.04
2018-07-26T00:51:39.176Z,22.07
2018-07-26T00:52:39.209Z,22.25
2018-07-26T00:53:39.224Z,21.79
2018-07-26T00:54:39.251Z,21.73
2018-07-26T00:55:39.263Z,21.48
2018-07-26T00:56:39.300Z,21.52
2018-07-26T00:57:39.332Z,21.67
2018-07-26T00:58:39.342Z,21.69
2018-07-26T00:59:39.366Z,21.92
2018-07-26T01:00:39.375Z,21.89
2018-07-26T01:01:39.417Z,21.48
2018-07-26T01:02:39.453Z,21.62
2018-07-26T01:03:39.451Z,21.82
2018-07-26T01:04:39.469Z,21.54
2018-07-26T01:05:39.493Z,21.72
2018-07-26T01:06:39.508Z,21.95
2018-07-26T01:07:39.539Z,21.57
2018-07-26T01:08:39.556Z,21.83
2018-07-26T01:09:39.622Z,21.69
2018-07-26T01:10:39.596Z,21.48
2018-07-26T01:11:39.624Z,21.61
2018-07-26T01:12:39.644Z,21.45
2018-07-26T01:13:39.669Z,21.69
2018-07-26T01:14:39.682Z,21.80
2018-07-26T01:15:39.714Z,21.45
2018-07-26T01:16:39.740Z,21.70
2018-07-26T01:17:39.764Z,21.76
2018-07-26T01:18:39.778Z,21.54
2018-07-26T01:19:39.793Z,21.73
2018-07-26T01:20:39.834Z,21.69
2018-07-26T01:21:39.840Z,21.35
2018-07-26T01:22:39.857Z,21.27
2018-07-26T01:23:39.885Z,21.37
2018-07-26T01:24:39.905Z,21.24
2018-07-26T01:25:39.926Z,21.07
2018-07-26T01:26:39.950Z,21.22
2018-07-26T01:27:39.972Z,21.27
2018-07-26T01:28:39.988Z,21.50
2018-07-26T01:29:40.017Z,21.61
2018-07-26T01:30:40.040Z,21.35
2018-07-26T01:31:40.062Z,21.46
2018-07-26T01:32:40.083Z,21.52
2018-07-26T01:33:40.110Z,21.32
2018-07-26T01:34:40.128Z,21.40
2018-07-26T01:35:40.149Z,21.37
2018-07-26T01:36:40.186Z,21.22
2018-07-26T01:37:40.206Z,21.45
2018-07-26T01:38:40.226Z,21.69
2018-07-26T01:39:40.235Z,21.83
2018-07-26T01:40:40.266Z,21.89
2018-07-26T01:41:40.283Z,21.82
2018-07-26T01:42:40.305Z,21.70
2018-07-26T01:43:40.325Z,21.32
2018-07-26T01:44:40.355Z,21.11
2018-07-26T01:45:40.362Z,21.18
2018-07-26T01:46:40.395Z,21.25
2018-07-26T01:47:40.417Z,21.18
2018-07-26T01:48:40.445Z,20.95
2018-07-26T01:49:40.452Z,20.99
2018-07-26T01:50:40.501Z,20.72
2018-07-26T01:51:40.503Z,20.66
2018-07-26T01:52:40.519Z,20.51
2018-07-26T01:53:40.554Z,20.47
2018-07-26T01:54:40.584Z,20.58
2018-07-26T01:55:40.606Z,20.60
2018-07-26T01:56:40.611Z,20.74
2018-07-26T01:57:40.639Z,20.52
2018-07-26T01:58:40.657Z,20.34
2018-07-26T01:59:40.669Z,20.21
2018-07-26T02:00:40.741Z,20.10
2018-07-26T02:01:40.769Z,20.50
2018-07-26T02:02:40.746Z,20.52
2018-07-26T02:03:40.787Z,20.40
2018-07-26T02:04:40.800Z,20.37
2018-07-26T02:05:40.809Z,20.62
2018-07-26T02:06:40.843Z,20.50
2018-07-26T02:07:40.847Z,20.32
2018-07-26T02:08:40.870Z,20.24
2018-07-26T02:09:40.920Z,20.32
2018-07-26T02:10:40.931Z,20.24
2018-07-26T02:11:40.934Z,20.26
2018-07-26T02:12:40.959Z,20.31
2018-07-26T02:13:40.979Z,20.39
2018-07-26T02:14:41.001Z,20.48
2018-07-26T02:15:41.020Z,20.41
2018-07-26T02:16:41.053Z,20.31
2018-07-26T02:17:41.072Z,20.16
2018-07-26T02:18:41.093Z,20.21
2018-07-26T02:19:41.111Z,20.22
2018-07-26T02:20:41.128Z,20.72
2018-07-26T02:21:41.149Z,21.00
2018-07-26T02:22:41.173Z,20.87
2018-07-26T02:23:41.203Z,20.75
2018-07-26T02:24:41.223Z,20.72
2018-07-26T02:25:41.236Z,20.74
2018-07-26T02:26:41.256Z,20.80
2018-07-26T02:27:41.277Z,20.93
2018-07-26T02:28:41.307Z,21.05
2018-07-26T02:29:41.345Z,20.93
2018-07-26T02:30:41.362Z,21.00
2018-07-26T02:31:41.379Z,20.97
2018-07-26T02:32:41.393Z,21.03
2018-07-26T02:33:41.419Z,20.93
2018-07-26T02:34:41.433Z,21.06
2018-07-26T02:35:41.456Z,21.18
2018-07-26T02:36:41.476Z,21.24
2018-07-26T02:37:41.521Z,21.51
2018-07-26T02:38:41.528Z,21.48
2018-07-26T02:39:41.551Z,21.60
2018-07-26T02:40:41.563Z,21.57
2018-07-26T02:41:41.586Z,21.50
2018-07-26T02:42:41.616Z,21.43
2018-07-26T02:43:41.625Z,21.22
2018-07-26T02:44:41.653Z,21.15
2018-07-26T02:45:41.670Z,21.33
2018-07-26T02:46:41.692Z,21.25
2018-07-26T02:47:41.714Z,21.33
2018-07-26T02:48:41.750Z,21.42
2018-07-26T02:49:41.761Z,21.37
2018-07-26T02:50:41.781Z,21.50
2018-07-26T02:51:41.813Z,21.52
2018-07-26T02:52:41.834Z,21.60
2018-07-26T02:53:41.851Z,21.62
2018-07-26T02:54:41.868Z,21.60
2018-07-26T02:55:41.896Z,21.66
2018-07-26T02:56:41.942Z,21.69
2018-07-26T02:57:41.944Z,21.51
2018-07-26T02:58:41.955Z,21.39
2018-07-26T02:59:41.994Z,21.03
2018-07-26T03:00:42.004Z,20.74
2018-07-26T03:01:42.017Z,20.72
2018-07-26T03:02:42.047Z,20.48
2018-07-26T03:03:42.065Z,20.14
2018-07-26T03:04:42.117Z,20.18
2018-07-26T03:05:42.105Z,20.13
2018-07-26T03:06:42.155Z,20.10
2018-07-26T03:07:42.167Z,19.96
2018-07-26T03:08:42.187Z,19.88
2018-07-26T03:09:42.202Z,19.85
2018-07-26T03:10:42.220Z,19.92
2018-07-26T03:11:42.233Z,19.81
2018-07-26T03:12:42.265Z,19.71
2018-07-26T03:13:42.321Z,19.81
2018-07-26T03:14:42.306Z,19.84
2018-07-26T03:15:42.334Z,19.92
2018-07-26T03:16:42.351Z,20.04
2018-07-26T03:17:42.365Z,19.95
2018-07-26T03:18:42.389Z,19.89
2018-07-26T03:19:42.415Z,19.91
2018-07-26T03:20:42.437Z,19.89
2018-07-26T03:21:42.456Z,19.84
2018-07-26T03:22:42.473Z,19.84
2018-07-26T03:23:42.496Z,19.91
2018-07-26T03:24:42.525Z,19.85
2018-07-26T03:25:42.556Z,19.77
2018-07-26T03:26:42.614Z,19.74
2018-07-26T03:27:42.588Z,19.74
2018-07-26T03:28:42.608Z,19.86
2018-07-26T03:29:42.634Z,19.82
2018-07-26T03:30:42.646Z,19.81
2018-07-26T03:31:42.681Z,19.70
2018-07-26T03:32:42.691Z,19.71
2018-07-26T03:33:42.717Z,20.04
2018-07-26T03:34:42.742Z,20.14
2018-07-26T03:35:42.757Z,19.99
2018-07-26T03:36:42.777Z,19.92
2018-07-26T03:37:42.801Z,19.81
2018-07-26T03:38:42.817Z,19.79
2018-07-26T03:39:42.841Z,20.13
2018-07-26T03:40:42.879Z,20.39
2018-07-26T03:41:42.889Z,20.21
2018-07-26T03:42:42.907Z,20.09
2018-07-26T03:43:42.935Z,19.76
2018-07-26T03:44:42.951Z,19.49
2018-07-26T03:45:42.973Z,19.47
2018-07-26T03:46:43.009Z,19.58
2018-07-26T03:47:43.021Z,19.58
2018-07-26T03:48:43.034Z,19.64
2018-07-26T03:49:43.071Z,19.67
2018-07-26T03:50:43.085Z,20.00
2018-07-26T03:51:43.107Z,20.52
2018-07-26T03:52:43.129Z,20.39
2018-07-26T03:53:43.141Z,20.25
2018-07-26T03:54:43.163Z,20.24
2018-07-26T03:55:43.199Z,20.14
2018-07-26T03:56:43.210Z,20.06
2018-07-26T03:57:43.258Z,19.86
2018-07-26T03:58:43.256Z,19.73
2018-07-26T03:59:43.294Z,19.73
2018-07-26T04:00:43.351Z,19.69
2018-07-26T04:01:43.319Z,19.79
2018-07-26T04:02:43.345Z,19.73
2018-07-26T04:03:43.360Z,19.74
2018-07-26T04:04:43.399Z,19.51
2018-07-26T04:05:43.423Z,19.70
2018-07-26T04:06:43.418Z,20.13
2018-07-26T04:07:43.450Z,20.34
2018-07-26T04:08:43.467Z,20.21
2018-07-26T04:09:43.496Z,20.25
2018-07-26T04:10:43.513Z,20.29
2018-07-26T04:11:43.532Z,20.14
2018-07-26T04:12:43.559Z,20.21
2018-07-26T04:13:43.594Z,20.24
2018-07-26T04:14:43.607Z,20.31
2018-07-26T04:15:43.615Z,20.36
2018-07-26T04:16:43.638Z,20.66
2018-07-26T04:17:43.674Z,21.02
2018-07-26T04:18:43.679Z,21.15
2018-07-26T04:19:43.719Z,21.18
2018-07-26T04:20:43.723Z,21.37
2018-07-26T04:21:43.753Z,21.27
2018-07-26T04:22:43.775Z,21.40
2018-07-26T04:23:43.791Z,21.51
2018-07-26T04:24:43.818Z,21.48
2018-07-26T04:25:43.841Z,21.24
2018-07-26T04:26:43.867Z,21.15
2018-07-26T04:27:43.885Z,21.09
2018-07-26T04:28:43.917Z,20.92
2018-07-26T04:29:43.940Z,20.66
2018-07-26T04:30:43.945Z,20.63
2018-07-26T04:31:44.011Z,20.48
2018-07-26T04:32:44.001Z,20.40
2018-07-26T04:33:44.011Z,20.39
2018-07-26T04:34:44.030Z,20.65
2018-07-26T04:35:44.069Z,20.85
2018-07-26T04:36:44.077Z,20.78
2018-07-26T04:37:44.109Z,20.95
2018-07-26T04:38:44.119Z,21.02
2018-07-26T04:39:44.137Z,21.35
2018-07-26T04:40:44.160Z,21.61
2018-07-26T04:41:44.188Z,21.88
2018-07-26T04:42:44.226Z,21.96
2018-07-26T04:43:44.224Z,21.80
2018-07-26T04:44:44.256Z,21.88
2018-07-26T04:45:44.268Z,21.88
2018-07-26T04:46:44.302Z,21.76
2018-07-26T04:47:44.340Z,21.95
2018-07-26T04:48:44.336Z,22.20
2018-07-26T04:49:44.364Z,22.26
2018-07-26T04:50:44.390Z,22.41
2018-07-26T04:51:44.420Z,22.39
2018-07-26T04:52:44.481Z,22.45
2018-07-26T04:53:44.468Z,22.10
2018-07-26T04:54:44.557Z,21.82
2018-07-26T04:55:44.505Z,21.51
2018-07-26T04:56:44.514Z,21.40
2018-07-26T04:57:44.535Z,21.35
2018-07-26T04:58:44.572Z,21.30
2018-07-26T04:59:44.584Z,21.29
2018-07-26T05:00:44.607Z,21.36
2018-07-26T05:01:44.623Z,21.89
2018-07-26T05:02:44.653Z,22.50
2018-07-26T05:03:44.671Z,23.15
2018-07-26T05:04:44.697Z,23.99
2018-07-26T05:05:44.713Z,24.65
2018-07-26T05:06:44.737Z,25.25
2018-07-26T05:07:44.784Z,25.58
2018-07-26T05:08:44.802Z,26.00
2018-07-26T05:09:44.816Z,26.75
2018-07-26T05:10:44.840Z,27.68
2018-07-26T05:11:44.864Z,28.17
2018-07-26T05:12:44.893Z,28.48
2018-07-26T05:13:44.920Z,28.19
2018-07-26T05:14:44.937Z,28.47
2018-07-26T05:15:44.971Z,28.67
2018-07-26T05:16:44.987Z,29.01
2018-07-26T05:17:45.017Z,29.24
2018-07-26T05:18:45.050Z,29.51
2018-07-26T05:19:45.067Z,29.59
2018-07-26T05:20:45.096Z,29.32
2018-07-26T05:21:45.136Z,29.32
2018-07-26T05:22:45.152Z,29.42
2018-07-26T05:23:45.182Z,29.51
2018-07-26T05:24:45.214Z,29.66
2018-07-26T05:25:45.238Z,29.38
2018-07-26T05:26:45.280Z,29.49
2018-07-26T05:27:45.308Z,29.84
2018-07-26T05:28:45.320Z,29.47
2018-07-26T05:29:45.363Z,29.14
2018-07-26T05:30:45.383Z,29.02
2018-07-26T05:31:45.408Z,29.01
2018-07-26T05:32:45.433Z,29.07
2018-07-26T05:33:45.461Z,29.29
2018-07-26T05:34:45.493Z,29.49
2018-07-26T05:35:45.517Z,29.45
2018-07-26T05:36:45.573Z,29.60
2018-07-26T05:37:45.589Z,30.24
2018-07-26T05:38:45.610Z,30.19
2018-07-26T05:39:45.635Z,29.95
2018-07-26T05:40:45.665Z,29.60
2018-07-26T05:41:45.690Z,30.10
2018-07-26T05:42:45.735Z,30.39
2018-07-26T05:43:45.763Z,30.57
2018-07-26T05:44:45.803Z,30.69
2018-07-26T05:45:45.816Z,30.75
2018-07-26T05:46:45.844Z,30.88
2018-07-26T05:47:45.869Z,31.22
2018-07-26T05:48:45.912Z,31.49
2018-07-26T05:49:45.940Z,31.85
2018-07-26T05:50:45.976Z,31.84
2018-07-26T05:51:45.988Z,31.56
2018-07-26T05:52:46.029Z,31.87
2018-07-26T05:53:46.054Z,32.36
2018-07-26T05:54:46.102Z,32.90
2018-07-26T05:55:46.121Z,32.37
2018-07-26T05:56:46.143Z,31.44
2018-07-26T05:57:46.177Z,32.31
2018-07-26T05:58:46.211Z,32.55
2018-07-26T05:59:46.238Z,31.76
2018-07-26T06:00:46.281Z,31.43
2018-07-26T06:01:46.303Z,31.65
2018-07-26T06:02:46.338Z,31.99
2018-07-26T06:03:46.371Z,32.67
2018-07-26T06:04:46.392Z,32.41
2018-07-26T06:05:46.425Z,32.75
2018-07-26T06:06:46.468Z,33.20
2018-07-26T06:07:46.493Z,32.08
2018-07-26T06:08:46.513Z,32.46
2018-07-26T06:09:46.562Z,32.90
2018-07-26T06:10:46.589Z,32.83
2018-07-26T06:11:46.600Z,32.22
2018-07-26T06:12:46.646Z,32.51
2018-07-26T06:13:46.684Z,32.87
2018-07-26T06:14:46.701Z,32.67
2018-07-26T06:15:46.745Z,33.05
2018-07-26T06:16:46.774Z,34.36
2018-07-26T06:17:46.832Z,35.55
2018-07-26T06:18:46.827Z,36.04
2018-07-26T06:19:46.860Z,35.73
2018-07-26T06:20:46.889Z,35.08
2018-07-26T06:21:46.924Z,34.08
2018-07-26T06:22:46.948Z,33.84
2018-07-26T06:23:46.988Z,34.54
2018-07-26T06:24:47.009Z,34.51
2018-07-26T06:25:47.048Z,35.17
2018-07-26T06:26:47.071Z,36.72
2018-07-26T06:27:47.108Z,37.40
2018-07-26T06:28:47.137Z,37.29
2018-07-26T06:29:47.169Z,37.60
2018-07-26T06:30:47.210Z,37.84
2018-07-26T06:31:47.234Z,38.40
2018-07-26T06:32:47.277Z,39.00
2018-07-26T06:33:47.313Z,39.36
2018-07-26T06:34:47.336Z,39.25
2018-07-26T06:35:47.363Z,39.53
2018-07-26T06:36:47.397Z,39.81
2018-07-26T06:37:47.432Z,39.87
2018-07-26T06:38:47.461Z,39.41
2018-07-26T06:39:47.494Z,39.21
2018-07-26T06:40:47.525Z,38.82
2018-07-26T06:41:47.558Z,38.74
2018-07-26T06:42:47.591Z,39.15
2018-07-26T06:43:47.628Z,39.33
2018-07-26T06:44:47.653Z,39.53
2018-07-26T06:45:47.689Z,38.86
2018-07-26T06:46:47.721Z,36.27
2018-07-26T06:47:47.755Z,35.08
2018-07-26T06:48:47.780Z,36.14
2018-07-26T06:49:47.827Z,36.17
2018-07-26T06:50:47.840Z,35.55
2018-07-26T06:51:47.876Z,34.83
2018-07-26T06:52:47.914Z,34.73
2018-07-26T06:53:47.941Z,35.18
2018-07-26T06:54:47.974Z,35.82
2018-07-26T06:55:48.007Z,36.08
2018-07-26T06:56:48.053Z,36.86
2018-07-26T06:57:48.075Z,37.48
2018-07-26T06:58:48.108Z,38.33
2018-07-26T06:59:48.139Z,38.62
2018-07-26T07:00:48.239Z,39.02
2018-07-26T07:01:48.200Z,38.84
2018-07-26T07:02:48.241Z,39.29
2018-07-26T07:03:48.267Z,39.65
2018-07-26T07:04:48.302Z,39.63
2018-07-26T07:05:48.327Z,39.55
2018-07-26T07:06:48.373Z,39.60
2018-07-26T07:07:48.401Z,38.77
2018-07-26T07:08:48.429Z,38.26
2018-07-26T07:09:48.470Z,39.41
2018-07-26T07:10:48.508Z,39.78
2018-07-26T07:11:48.537Z,39.60
2018-07-26T07:12:48.582Z,38.28
2018-07-26T07:13:48.593Z,39.70
2018-07-26T07:14:48.631Z,40.59
2018-07-26T07:15:48.661Z,40.18
2018-07-26T07:16:48.699Z,40.61
2018-07-26T07:17:48.741Z,40.75
2018-07-26T07:18:48.767Z,41.55
2018-07-26T07:19:48.792Z,41.57
2018-07-26T07:20:48.831Z,42.07
2018-07-26T07:21:48.857Z,42.04
2018-07-26T07:22:48.890Z,42.02
2018-07-26T07:23:48.928Z,41.62
2018-07-26T07:24:48.980Z,42.19
2018-07-26T07:25:49.008Z,42.04
2018-07-26T07:26:49.025Z,42.26
2018-07-26T07:27:49.120Z,40.21
2018-07-26T07:28:49.105Z,39.56
2018-07-26T07:29:49.144Z,40.24
2018-07-26T07:30:49.164Z,40.26
2018-07-26T07:31:49.204Z,39.00
2018-07-26T07:32:49.225Z,38.60
2018-07-26T07:33:49.263Z,39.80
2018-07-26T07:34:49.307Z,40.82
2018-07-26T07:35:49.340Z,41.03
2018-07-26T07:36:49.365Z,40.97
2018-07-26T07:37:49.388Z,40.95
2018-07-26T07:38:49.425Z,39.92
2018-07-26T07:39:49.456Z,40.53
2018-07-26T07:40:49.498Z,39.63
2018-07-26T07:41:49.539Z,41.29
2018-07-26T07:42:49.564Z,40.77
2018-07-26T07:43:49.599Z,40.75
2018-07-26T07:44:49.628Z,40.54
2018-07-26T07:45:49.663Z,40.16
2018-07-26T07:46:49.714Z,40.15
2018-07-26T07:47:49.757Z,41.85
2018-07-26T07:48:49.771Z,42.25
2018-07-26T07:49:49.796Z,43.03
2018-07-26T07:50:49.836Z,42.95
2018-07-26T07:51:49.878Z,41.52
2018-07-26T07:52:49.945Z,42.17
2018-07-26T07:53:49.933Z,41.68
2018-07-26T07:54:49.964Z,42.02
2018-07-26T07:55:49.992Z,42.29
2018-07-26T07:56:50.044Z,43.04
2018-07-26T07:57:50.126Z,43.16
2018-07-26T07:58:50.103Z,42.91
2018-07-26T07:59:50.180Z,41.62
2018-07-26T08:00:50.164Z,40.63
2018-07-26T08:01:50.212Z,41.09
2018-07-26T08:02:50.229Z,41.12
2018-07-26T08:03:50.279Z,41.22
2018-07-26T08:04:50.293Z,41.19
2018-07-26T08:05:50.325Z,41.19
2018-07-26T08:06:50.402Z,41.56
2018-07-26T08:07:50.396Z,41.99
2018-07-26T08:08:50.472Z,41.43
2018-07-26T08:09:50.469Z,43.38
2018-07-26T08:10:50.507Z,43.69
2018-07-26T08:11:50.534Z,42.36
2018-07-26T08:12:50.565Z,41.82
2018-07-26T08:13:50.598Z,42.01
2018-07-26T08:14:50.634Z,41.57
2018-07-26T08:15:50.660Z,41.57
2018-07-26T08:16:50.696Z,41.60
2018-07-26T08:17:50.724Z,41.77
2018-07-26T08:18:50.759Z,41.40
2018-07-26T08:19:50.802Z,40.88
2018-07-26T08:20:50.827Z,41.24
2018-07-26T08:21:50.864Z,40.47
2018-07-26T08:22:50.900Z,40.92
2018-07-26T08:23:50.923Z,41.70
2018-07-26T08:24:50.959Z,42.48
2018-07-26T08:25:50.983Z,42.10
2018-07-26T08:26:51.016Z,41.50
2018-07-26T08:27:51.061Z,41.24
2018-07-26T08:28:51.085Z,41.57
2018-07-26T08:29:51.119Z,41.50
2018-07-26T08:30:51.148Z,42.17
2018-07-26T08:31:51.177Z,41.31
2018-07-26T08:32:51.215Z,40.56
2018-07-26T08:33:51.241Z,40.30
2018-07-26T08:34:51.277Z,40.26
2018-07-26T08:35:51.315Z,40.51
2018-07-26T08:36:51.333Z,41.65
2018-07-26T08:37:51.376Z,41.90
2018-07-26T08:38:51.402Z,41.29
2018-07-26T08:39:51.430Z,41.22
2018-07-26T08:40:51.459Z,40.41
2018-07-26T08:41:51.490Z,39.81
2018-07-26T08:42:51.519Z,39.81
2018-07-26T08:43:51.548Z,39.77
2018-07-26T08:44:51.581Z,38.82
2018-07-26T08:45:51.625Z,38.28
2018-07-26T08:46:51.643Z,38.06
2018-07-26T08:47:51.675Z,38.14
2018-07-26T08:48:51.751Z,37.17
2018-07-26T08:49:51.731Z,37.06
2018-07-26T08:50:51.769Z,36.86
2018-07-26T08:51:51.790Z,36.62
2018-07-26T08:52:51.818Z,37.07
2018-07-26T08:53:51.859Z,37.68
2018-07-26T08:54:51.870Z,36.89
2018-07-26T08:55:51.911Z,36.24
2018-07-26T08:56:51.943Z,36.81
2018-07-26T08:57:51.962Z,36.68
2018-07-26T08:58:52.009Z,36.35
2018-07-26T08:59:52.019Z,35.83
2018-07-26T09:00:52.067Z,35.53
2018-07-26T09:01:52.070Z,36.17
2018-07-26T09:02:52.099Z,36.24
2018-07-26T09:03:52.145Z,36.59
2018-07-26T09:04:52.163Z,36.58
2018-07-26T09:05:52.185Z,36.81
2018-07-26T09:06:52.210Z,36.39
2018-07-26T09:07:52.255Z,36.42
2018-07-26T09:08:52.282Z,36.65
2018-07-26T09:09:52.354Z,36.80
2018-07-26T09:10:52.346Z,36.27
2018-07-26T09:11:52.352Z,36.31
2018-07-26T09:12:52.390Z,36.20
2018-07-26T09:13:52.510Z,36.14
2018-07-26T09:14:52.439Z,36.28
2018-07-26T09:15:52.462Z,35.80
2018-07-26T09:16:52.496Z,35.98
2018-07-26T09:17:52.517Z,36.01
2018-07-26T09:18:52.549Z,36.23
2018-07-26T09:19:52.658Z,35.90
2018-07-26T09:20:52.600Z,35.34
2018-07-26T09:21:52.633Z,35.08
2018-07-26T09:22:52.682Z,35.45
2018-07-26T09:23:52.682Z,35.76
2018-07-26T09:24:52.731Z,35.71
2018-07-26T09:25:52.739Z,35.18
2018-07-26T09:26:52.764Z,35.56
2018-07-26T09:27:52.808Z,36.07
2018-07-26T09:28:52.869Z,36.16
2018-07-26T09:29:52.852Z,36.52
2018-07-26T09:30:52.889Z,36.64
2018-07-26T09:31:52.923Z,36.84
2018-07-26T09:32:53.006Z,36.14
2018-07-26T09:33:52.978Z,35.74
2018-07-26T09:34:52.979Z,35.53
2018-07-26T09:35:53.009Z,36.05
2018-07-26T09:36:53.039Z,35.95
2018-07-26T09:37:53.091Z,35.49
2018-07-26T09:38:53.096Z,34.92
2018-07-26T09:39:53.130Z,34.86
2018-07-26T09:40:53.151Z,35.29
2018-07-26T09:41:53.174Z,34.71
2018-07-26T09:42:53.202Z,34.96
2018-07-26T09:43:53.232Z,35.33
2018-07-26T09:44:53.282Z,35.17
2018-07-26T09:45:53.280Z,35.83
2018-07-26T09:46:53.327Z,35.98
2018-07-26T09:47:53.347Z,35.10
2018-07-26T09:48:53.367Z,35.07
2018-07-26T09:49:53.390Z,35.26
2018-07-26T09:50:53.423Z,35.36
2018-07-26T09:51:53.454Z,35.48
2018-07-26T09:52:53.478Z,35.73
2018-07-26T09:53:53.516Z,35.79
2018-07-26T09:54:53.584Z,35.79
2018-07-26T09:55:53.579Z,35.67
2018-07-26T09:56:53.593Z,35.49
2018-07-26T09:57:53.636Z,35.00
2018-07-26T09:58:53.643Z,34.99
2018-07-26T09:59:53.665Z,35.05
2018-07-26T10:00:53.694Z,34.95
2018-07-26T10:01:53.713Z,35.17
2018-07-26T10:02:53.743Z,35.33
2018-07-26T10:03:53.770Z,35.23
2018-07-26T10:04:53.798Z,35.55
2018-07-26T10:05:53.826Z,35.60
2018-07-26T10:06:53.896Z,34.80
2018-07-26T10:07:53.887Z,34.70
2018-07-26T10:08:53.905Z,34.95
2018-07-26T10:09:53.929Z,35.08
2018-07-26T10:10:53.973Z,35.48
2018-07-26T10:11:53.999Z,35.46
2018-07-26T10:12:54.012Z,35.78
2018-07-26T10:13:54.042Z,35.52
2018-07-26T10:14:54.066Z,35.58
2018-07-26T10:15:54.120Z,35.51
2018-07-26T10:16:54.126Z,35.05
2018-07-26T10:17:54.154Z,35.17
2018-07-26T10:18:54.170Z,35.05
2018-07-26T10:19:54.206Z,34.97
2018-07-26T10:20:54.231Z,35.26
2018-07-26T10:21:54.266Z,35.89
2018-07-26T10:22:54.289Z,36.09
2018-07-26T10:23:54.316Z,35.95
2018-07-26T10:24:54.347Z,35.97
2018-07-26T10:25:54.365Z,35.85
2018-07-26T10:26:54.401Z,35.49
2018-07-26T10:27:54.452Z,35.63
2018-07-26T10:28:54.452Z,35.52
2018-07-26T10:29:54.470Z,35.53
2018-07-26T10:30:54.495Z,35.39
2018-07-26T10:31:54.530Z,35.22
2018-07-26T10:32:54.560Z,35.05
2018-07-26T10:33:54.582Z,35.07
2018-07-26T10:34:54.608Z,35.51
2018-07-26T10:35:54.637Z,35.53
2018-07-26T10:36:54.662Z,35.44
2018-07-26T10:37:54.693Z,35.98
2018-07-26T10:38:54.722Z,35.89
2018-07-26T10:39:54.748Z,35.83
2018-07-26T10:40:54.769Z,35.68
2018-07-26T10:41:54.801Z,35.48
2018-07-26T10:42:54.823Z,35.64
2018-07-26T10:43:54.854Z,35.55
2018-07-26T10:44:54.879Z,35.49
2018-07-26T10:45:54.908Z,35.89
2018-07-26T10:46:54.932Z,36.05
2018-07-26T10:47:54.966Z,35.82
2018-07-26T10:48:54.997Z,35.67
2018-07-26T10:49:55.063Z,35.71
2018-07-26T10:50:55.051Z,36.04
2018-07-26T10:51:55.071Z,36.36
2018-07-26T10:52:55.095Z,36.31
2018-07-26T10:53:55.126Z,36.43
2018-07-26T10:54:55.162Z,36.23
2018-07-26T10:55:55.176Z,36.02
2018-07-26T10:56:55.214Z,35.51
2018-07-26T10:57:55.231Z,35.53
2018-07-26T10:58:55.269Z,35.22
2018-07-26T10:59:55.287Z,35.17
2018-07-26T11:00:55.313Z,35.39
2018-07-26T11:01:55.340Z,35.51
2018-07-26T11:02:55.380Z,35.45
2018-07-26T11:03:55.397Z,35.18
2018-07-26T11:04:55.426Z,34.92
2018-07-26T11:05:55.448Z,34.88
2018-07-26T11:06:55.472Z,35.22
2018-07-26T11:07:55.504Z,34.70
2018-07-26T11:08:55.535Z,34.57
2018-07-26T11:09:55.570Z,34.95
2018-07-26T11:10:55.583Z,35.02
2018-07-26T11:11:55.630Z,35.18
2018-07-26T11:12:55.641Z,35.55
2018-07-26T11:13:55.664Z,35.29
2018-07-26T11:14:55.743Z,35.73
2018-07-26T11:15:55.716Z,35.37
2018-07-26T11:16:55.748Z,35.26
2018-07-26T11:17:55.775Z,35.68
2018-07-26T11:18:55.870Z,35.61
2018-07-26T11:19:55.822Z,35.76
2018-07-26T11:20:55.857Z,35.34
2018-07-26T11:21:55.881Z,35.31
2018-07-26T11:22:55.909Z,35.66
2018-07-26T11:23:55.945Z,35.70
2018-07-26T11:24:55.966Z,35.55
2018-07-26T11:25:55.998Z,35.78
2018-07-26T11:26:56.038Z,35.34
2018-07-26T11:27:56.067Z,35.56
2018-07-26T11:28:56.090Z,35.85
2018-07-26T11:29:56.165Z,36.00
2018-07-26T11:30:56.129Z,36.12
2018-07-26T11:31:56.165Z,36.18
2018-07-26T11:32:56.188Z,36.55
2018-07-26T11:33:56.205Z,36.67
2018-07-26T11:34:56.228Z,36.92
2018-07-26T11:35:56.272Z,37.30
2018-07-26T11:36:56.291Z,37.39
2018-07-26T11:37:56.368Z,36.79
2018-07-26T11:38:56.358Z,37.01
2018-07-26T11:39:56.367Z,37.17
2018-07-26T11:40:56.417Z,37.10
2018-07-26T11:41:56.422Z,37.39
2018-07-26T11:42:56.449Z,37.01
2018-07-26T11:43:56.479Z,37.08
2018-07-26T11:44:56.509Z,37.48
2018-07-26T11:45:56.536Z,37.83
2018-07-26T11:46:56.572Z,37.03
2018-07-26T11:47:56.601Z,36.72
2018-07-26T11:48:56.627Z,36.62
2018-07-26T11:49:56.669Z,36.37
2018-07-26T11:50:56.683Z,36.05
2018-07-26T11:51:56.697Z,36.21
2018-07-26T11:52:56.729Z,36.47
2018-07-26T11:53:56.756Z,36.65
2018-07-26T11:54:56.790Z,37.02
2018-07-26T11:55:56.810Z,37.03
2018-07-26T11:56:56.849Z,37.06
2018-07-26T11:57:56.867Z,36.54
2018-07-26T11:58:56.899Z,36.36
2018-07-26T11:59:56.918Z,36.16
2018-07-26T12:00:56.948Z,36.39
2018-07-26T12:01:56.983Z,36.55
2018-07-26T12:02:57.010Z,36.68
2018-07-26T12:03:57.039Z,37.06
2018-07-26T12:04:57.067Z,37.02
2018-07-26T12:05:57.091Z,36.96
2018-07-26T12:06:57.114Z,37.06
2018-07-26T12:07:57.144Z,37.25
2018-07-26T12:08:57.175Z,37.32
2018-07-26T12:09:57.209Z,37.07
2018-07-26T12:10:57.225Z,36.89
2018-07-26T12:11:57.248Z,37.20
2018-07-26T12:12:57.287Z,36.79
2018-07-26T12:13:57.304Z,36.57
2018-07-26T12:14:57.375Z,36.40
2018-07-26T12:15:57.365Z,36.39
2018-07-26T12:16:57.385Z,36.39
2018-07-26T12:17:57.422Z,36.14
2018-07-26T12:18:57.448Z,35.89
2018-07-26T12:19:57.475Z,36.14
2018-07-26T12:20:57.503Z,35.98
2018-07-26T12:21:57.524Z,35.45
2018-07-26T12:22:57.566Z,35.49
2018-07-26T12:23:57.590Z,35.53
2018-07-26T12:24:57.608Z,36.27
2018-07-26T12:25:57.638Z,36.81
2018-07-26T12:26:57.696Z,37.06
2018-07-26T12:27:57.692Z,36.62
2018-07-26T12:28:57.726Z,36.27
2018-07-26T12:29:57.747Z,36.23
2018-07-26T12:30:57.791Z,36.30
2018-07-26T12:31:57.801Z,36.37
2018-07-26T12:32:57.835Z,36.42
2018-07-26T12:33:57.865Z,35.93
2018-07-26T12:34:57.897Z,35.92
2018-07-26T12:35:58.022Z,35.78
2018-07-26T12:36:57.961Z,36.07
2018-07-26T12:37:57.973Z,36.51
2018-07-26T12:38:58.001Z,36.59
2018-07-26T12:39:58.029Z,36.24
2018-07-26T12:40:58.052Z,36.02
2018-07-26T12:41:58.075Z,35.71
2018-07-26T12:42:58.105Z,35.90
2018-07-26T12:43:58.134Z,36.01
2018-07-26T12:44:58.156Z,36.28
2018-07-26T12:45:58.194Z,36.58
2018-07-26T12:46:58.213Z,36.61
2018-07-26T12:47:58.241Z,36.30
2018-07-26T12:48:58.278Z,35.89
2018-07-26T12:49:58.291Z,35.83
2018-07-26T12:50:58.322Z,36.17
2018-07-26T12:51:58.361Z,36.17
2018-07-26T12:52:58.390Z,36.21